< Typhoon 196716 1967 Season Typhoon 196718 >
Typhoon 196717 (JOAN)
General InformationTrack Information on Google Maps || Disaster Info.ResourceGoogle EarthGE AnimationAtom FeedGeoJSON
Detalied Best Track (Time Zone = UTC)
Year Month Day Hour Lat. Long. Pressure (hPa) Wind (kt) Class Image Chart
1967 8 16 18 21.3 163.5 1008 0 2 -- Chart
1967 8 17 00 22.3 162.7 1006 0 2 -- Chart
1967 8 17 06 23.3 161.8 1006 0 2 -- Chart
1967 8 17 12 24.3 160.9 1006 0 2 -- Chart
1967 8 17 18 25.3 160.0 1004 0 2 -- Chart
1967 8 18 00 26.3 158.9 1000 0 9 -- Chart
1967 8 18 06 27.2 157.9 990 0 9 -- Chart
1967 8 18 12 27.9 157.0 990 0 9 -- Chart
1967 8 18 18 28.5 156.5 990 0 9 -- Chart
1967 8 19 00 29.3 155.8 988 0 9 -- Chart
1967 8 19 06 29.9 155.2 990 0 9 -- Chart
1967 8 19 12 30.4 154.6 992 0 9 -- Chart
1967 8 19 18 30.8 154.3 992 0 9 -- Chart
1967 8 20 00 31.5 154.0 992 0 9 -- Chart
1967 8 20 06 32.0 154.1 992 0 9 -- Chart
1967 8 20 12 32.2 154.2 990 0 9 -- Chart
1967 8 20 18 32.6 154.4 990 0 9 -- Chart
1967 8 21 00 33.1 154.7 992 0 9 -- Chart
1967 8 21 06 33.6 155.3 994 0 9 -- Chart
1967 8 21 12 34.0 156.1 994 0 9 -- Chart
1967 8 21 18 34.2 156.9 994 0 9 -- Chart
1967 8 22 00 34.5 157.8 996 0 9 -- Chart
1967 8 22 06 34.7 158.7 996 0 9 -- Chart
1967 8 22 12 34.8 159.6 998 0 9 -- Chart
1967 8 22 18 34.9 160.5 998 0 9 -- Chart
1967 8 23 00 35.0 161.6 998 0 9 -- Chart
1967 8 23 06 35.1 162.5 998 0 9 -- Chart
1967 8 23 12 35.5 163.5 998 0 9 -- Chart
1967 8 23 18 36.0 164.5 998 0 9 -- Chart
1967 8 24 00 36.7 165.8 1000 0 9 -- Chart
1967 8 24 06 38.0 167.0 1000 0 9 -- Chart
1967 8 24 12 39.0 168.0 1000 0 9 -- Chart
1967 8 24 18 40.0 169.0 1000 0 9 -- Chart
1967 8 25 00 41.0 170.0 1000 0 9 -- Chart
1967 8 25 06 42.5 171.5 1000 0 9 -- Chart
1967 8 25 12 45.0 173.5 1000 0 9 -- Chart
1967 8 25 18 47.0 175.0 998 0 6 -- Chart
1967 8 26 00 47.9 177.0 1000 0 6 -- Chart
Japan Meteorological Agency Best Track Data | Correction Date : 1989-06-01
< Typhoon 196716 1967 Season Typhoon 196718 >

Help